Latest Weather Observations for Ngukurr AWS

IDD60801

Issued at 8:01 am CST Thursday 28 July 2016 (issued every 30 minutes, with the page automatically refreshed every 10 minutes)

About weather observations | Map of weather stations | Latest weather observations for NT | Other Formats
Station Details ID: 014299 Name: NGUKURR AIRPORT Lat: -14.72 Lon: 134.75 Height: 14.46 m
Data from the previous 72 hours. | See also: Recent months at Ngukurr AWS
Date/Time
CST
Temp
°C
App
Temp
°C
Dew
Point
°C
Rel
Hum
%
Delta-T
°C
Wind Press
QNH
hPa
Press
MSL
hPa
Rain since
9am
mm
Dir  Spd
km/h
Gust
km/h
Spd
kts
Gust
kts
28/08:00am 18.6 16.5 4.0 38 6.9 SSE 4 6 2 3 1018.2 1018.2 0.0
28/07:30am 14.6 14.3 8.8 68 2.9 CALM 0 0 0 0 1018.1 1018.1 0.0
28/07:00am 13.1 12.8 8.8 75 2.2 CALM 0 0 0 0 1017.8 1017.8 0.0
28/06:30am 13.6 13.3 8.7 72 2.5 CALM 0 2 0 1 1017.5 1017.5 0.0
28/06:00am 14.1 14.0 9.3 73 2.4 CALM 0 0 0 0 1017.2 1017.2 0.0
28/05:30am 14.2 14.4 10.6 79 1.9 CALM 0 2 0 1 1017.0 1017.0 0.0
28/05:00am 14.3 14.7 12.5 89 1.0 SE 2 4 1 2 1016.9 1016.9 0.0
28/04:30am 14.2 15.1 12.8 91 0.8 CALM 0 0 0 0 1016.9 1016.9 0.0
28/04:00am 14.3 14.9 11.8 85 1.3 CALM 0 0 0 0 1016.9 1016.9 0.0
28/03:30am 14.7 15.7 13.1 90 0.9 CALM 0 0 0 0 1016.8 1016.8 0.0
28/03:00am 15.2 16.3 13.4 89 1.0 CALM 0 0 0 0 1016.8 1016.8 0.0
28/02:30am 15.7 16.2 12.8 83 1.6 N 2 2 1 1 1016.7 1016.7 0.0
28/02:00am 16.3 17.1 12.7 79 2.0 CALM 0 0 0 0 1016.7 1016.7 0.0
28/01:30am 16.5 17.4 13.0 80 1.9 CALM 0 0 0 0 1016.8 1016.8 0.0
28/01:00am 17.2 18.1 13.9 81 1.9 SSE 2 4 1 2 1016.8 1016.8 0.0
28/12:30am 17.3 18.2 13.0 76 2.4 CALM 0 0 0 0 1016.9 1016.9 0.0
28/12:00am 18.3 19.6 14.0 76 2.5 CALM 0 2 0 1 1017.0 1017.0 0.0
 
Date/Time
CST
Temp
°C
App
Temp
°C
Dew
Point
°C
Rel
Hum
%
Delta-T
°C
Wind Press
QNH
hPa
Press
MSL
hPa
Rain since
9am
mm
Dir  Spd
km/h
Gust
km/h
Spd
kts
Gust
kts
27/11:30pm 18.8 19.2 13.6 72 3.0 SSE 4 6 2 3 1017.3 1017.3 0.0
27/11:00pm 19.4 19.2 13.1 67 3.6 SSE 6 7 3 4 1017.4 1017.4 0.0
27/10:30pm 20.4 20.5 12.6 61 4.4 SE 4 6 2 3 1017.3 1017.3 0.0
27/10:00pm 21.9 21.8 13.3 58 4.9 E 6 7 3 4 1017.1 1017.1 0.0
27/09:30pm 22.4 21.6 12.9 55 5.4 E 9 13 5 7 1016.9 1016.9 0.0
27/09:00pm 23.1 21.9 11.5 48 6.5 E 9 15 5 8 1016.8 1016.8 0.0
27/08:30pm 23.7 22.6 10.7 44 7.2 E 7 15 4 8 1016.4 1016.4 0.0
27/08:00pm 24.5 22.8 10.0 40 8.0 E 9 13 5 7 1016.1 1016.1 0.0
27/07:30pm 25.3 23.2 9.6 37 8.6 E 11 15 6 8 1015.8 1015.8 0.0
27/07:00pm 26.2 23.2 9.1 34 9.3 E 15 24 8 13 1015.3 1015.3 0.0
27/06:30pm 27.3 23.7 8.2 30 10.3 E 17 24 9 13 1014.9 1014.9 0.0
27/06:00pm 28.5 24.5 8.2 28 11.1 E 19 28 10 15 1014.4 1014.4 0.0
27/05:30pm 30.0 25.7 7.8 25 12.1 E 20 30 11 16 1014.0 1014.0 0.0
27/05:00pm 30.9 26.8 8.0 24 12.6 E 19 28 10 15 1013.6 1013.6 0.0
27/04:30pm 31.8 28.4 7.5 22 13.3 ESE 15 24 8 13 1013.3 1013.3 0.0
27/04:00pm 31.9 27.6 6.9 21 13.6 E 19 28 10 15 1013.2 1013.2 0.0
27/03:30pm 32.5 29.1 5.9 19 14.2 E 13 24 7 13 1013.3 1013.3 0.0
27/03:00pm 32.3 29.2 5.7 19 14.2 SE 11 26 6 14 1013.6 1013.6 0.0
27/02:30pm 31.9 27.1 5.4 19 14.0 ESE 20 32 11 17 1014.0 1014.0 0.0
27/02:00pm 31.7 27.8 5.3 19 13.9 E 15 30 8 16 1014.4 1014.4 0.0
27/01:30pm 31.7 27.9 6.0 20 13.7 ESE 15 26 8 14 1014.8 1014.8 0.0
27/01:00pm 31.4 28.1 6.5 21 13.4 E 13 20 7 11 1015.3 1015.3 0.0
27/12:30pm 30.6 27.7 6.5 22 12.9 ESE 11 22 6 12 1015.9 1015.9 0.0
27/12:00pm 30.0 26.6 6.0 22 12.7 ESE 13 24 7 13 1016.4 1016.4 0.0
27/11:30am 29.0 25.2 5.8 23 12.1 SE 15 24 8 13 1016.8 1016.8 0.0
27/11:00am 28.3 24.4 5.2 23 11.9 SE 15 24 8 13 1017.3 1017.3 0.0
27/10:30am 27.2 23.2 4.9 24 11.4 SE 15 26 8 14 1017.6 1017.6 0.0
27/10:00am 26.1 21.8 5.1 26 10.7 SE 17 26 9 14 1017.9 1017.9 0.0
27/09:30am 24.2 20.2 5.1 29 9.6 SE 15 24 8 13 1017.9 1017.9 0.0
27/09:00am 23.6 20.3 4.5 29 9.4 ESE 11 17 6 9 1017.8 1017.8 0.0
27/08:30am 22.0 20.2 7.0 38 7.7 ESE 6 13 3 7 1017.6 1017.6 0.0
27/08:00am 19.6 20.3 12.1 62 4.2 CALM 0 6 0 3 1017.2 1017.2 0.0
27/07:30am 16.6 18.7 16.3 98 0.2 CALM 0 0 0 0 1016.8 1016.8 0.0
27/07:00am 15.6 17.3 15.3 98 0.2 CALM 0 0 0 0 1016.4 1016.4 0.0
27/06:30am 16.2 18.2 15.9 98 0.2 CALM 0 0 0 0 1016.1 1016.1 0.0
27/06:00am 16.7 18.9 16.4 98 0.2 CALM 0 0 0 0 1015.9 1015.9 0.0
27/05:30am 17.1 19.4 16.8 98 0.2 CALM 0 0 0 0 1015.9 1015.9 0.0
27/05:00am 17.7 19.9 17.4 98 0.2 S 2 4 1 2 1015.7 1015.7 0.0
27/04:30am 18.5 21.4 18.2 98 0.2 CALM 0 2 0 1 1015.6 1015.6 0.0
27/04:00am 19.3 21.6 17.8 91 0.9 SE 2 2 1 1 1015.5 1015.5 0.0
27/03:30am 20.2 22.2 18.7 91 0.9 S 6 11 3 6 1015.5 1015.5 0.0
27/03:00am 20.1 22.6 19.1 94 0.6 S 4 7 2 4 1015.5 1015.5 0.0
27/02:30am 20.2 22.4 19.5 96 0.4 S 7 15 4 8 1015.6 1015.6 0.0
27/02:00am 18.2 20.6 17.9 98 0.2 S 2 6 1 3 1015.1 1015.1 0.0
27/01:30am 17.1 18.9 15.6 91 0.9 CALM 0 0 0 0 1015.1 1015.1 0.0
27/01:00am 17.8 20.2 17.0 95 0.5 CALM 0 0 0 0 1015.2 1015.2 0.0
27/12:30am 18.2 19.8 17.0 93 0.7 S 4 6 2 3 1015.3 1015.3 0.0
27/12:00am 18.1 19.3 15.9 87 1.3 SSE 4 4 2 2 1015.4 1015.4 0.0
 
Date/Time
CST
Temp
°C
App
Temp
°C
Dew
Point
°C
Rel
Hum
%
Delta-T
°C
Wind Press
QNH
hPa
Press
MSL
hPa
Rain since
9am
mm
Dir  Spd
km/h
Gust
km/h
Spd
kts
Gust
kts
26/11:30pm 18.6 20.2 16.0 85 1.5 SSE 2 4 1 2 1015.4 1015.4 0.0
26/11:00pm 18.9 20.1 15.8 82 1.8 SSE 4 6 2 3 1015.4 1015.4 0.0
26/10:30pm 19.2 19.5 14.5 74 2.7 SE 6 6 3 3 1015.5 1015.5 0.0
26/10:00pm 20.1 20.7 14.2 69 3.4 SSE 4 6 2 3 1015.3 1015.3 0.0
26/09:30pm 21.2 21.6 13.6 62 4.4 SE 4 6 2 3 1015.1 1015.1 0.0
26/09:00pm 23.0 23.0 13.5 55 5.5 ESE 6 9 3 5 1014.8 1014.8 0.0
26/08:30pm 24.3 23.9 12.9 49 6.6 E 7 11 4 6 1014.6 1014.6 0.0
26/08:00pm 25.0 24.4 12.2 44 7.3 E 7 9 4 5 1014.4 1014.4 0.0
26/07:30pm 25.5 24.9 11.7 42 7.9 ENE 6 7 3 4 1013.9 1013.9 0.0
26/07:00pm 26.2 25.3 11.5 40 8.4 E 7 11 4 6 1013.5 1013.5 0.0
26/06:30pm 26.9 24.8 11.0 37 9.0 E 13 17 7 9 1013.1 1013.1 0.0
26/06:00pm 27.8 24.9 10.9 35 9.6 E 17 26 9 14 1012.7 1012.7 0.0
26/05:30pm 29.3 26.4 10.9 32 10.5 E 17 26 9 14 1012.3 1012.3 0.0
26/05:00pm 29.9 26.5 10.5 30 11.1 E 19 26 10 14 1012.1 1012.1 0.0
26/04:30pm 30.8 28.1 10.2 28 11.7 E 15 22 8 12 1011.9 1011.9 0.0
26/04:00pm 31.3 28.1 10.1 27 12.1 E 17 28 9 15 1011.8 1011.8 0.0
26/03:30pm 31.5 29.1 10.2 27 12.2 E 13 26 7 14 1012.0 1012.0 0.0
26/03:00pm 31.9 29.1 10.0 26 12.5 ENE 15 24 8 13 1012.3 1012.3 0.0
26/02:30pm 31.9 28.8 8.8 24 12.9 ENE 15 26 8 14 1012.5 1012.5 0.0
26/02:00pm 31.5 28.3 8.5 24 12.8 E 15 24 8 13 1013.0 1013.0 0.0
26/01:30pm 31.8 29.3 8.1 23 13.1 ESE 11 22 6 12 1013.5 1013.5 0.0
26/01:00pm 31.3 28.4 8.3 24 12.7 E 13 22 7 12 1014.1 1014.1 0.0
26/12:30pm 30.9 27.6 8.0 24 12.6 ESE 15 20 8 11 1014.6 1014.6 0.0
26/12:00pm 30.1 27.4 7.3 24 12.3 SSE 11 19 6 10 1015.2 1015.2 0.0
26/11:30am 29.5 25.9 6.8 24 12.1 SE 15 26 8 14 1015.8 1015.8 0.0
26/11:00am 29.3 25.9 7.8 26 11.7 ESE 15 22 8 12 1016.2 1016.2 0.0
26/10:30am 27.6 23.0 8.0 29 10.6 E 22 30 12 16 1016.3 1016.3 0.0
26/10:00am 26.6 22.7 8.6 32 9.8 ESE 19 24 10 13 1016.6 1016.6 0.0
26/09:30am 25.4 21.5 9.3 36 8.8 ESE 20 32 11 17 1016.9 1016.9 0.0
26/09:00am 23.3 23.2 14.0 56 5.4 SE 7 11 4 6 1016.9 1016.9 0.0
26/08:30am 21.6 21.5 15.0 66 3.9 SE 9 13 5 7 1016.7 1016.7 0.0
26/08:00am 20.0 22.3 16.8 82 1.9 CALM 0 0 0 0 1016.5 1016.5 0.0
26/07:30am 16.9 17.7 14.9 88 1.2 NNW 4 4 2 2 1016.1 1016.1 0.0
26/07:00am 15.1 16.7 14.8 98 0.2 CALM 0 0 0 0 1015.8 1015.8 0.0
26/06:30am 15.3 16.9 14.8 97 0.3 CALM 0 0 0 0 1015.4 1015.4 0.0
26/06:00am 15.3 16.9 15.0 98 0.2 CALM 0 2 0 1 1015.2 1015.2 0.0
26/05:30am 15.3 16.4 14.7 96 0.3 SSW 2 6 1 3 1014.9 1014.9 0.0
26/05:00am 15.8 17.6 15.5 98 0.2 CALM 0 0 0 0 1014.4 1014.4 0.0
26/04:30am 15.9 17.5 14.9 94 0.6 CALM 0 0 0 0 1014.1 1014.1 0.0
26/04:00am 16.2 17.7 14.6 90 0.9 CALM 0 0 0 0 1014.1 1014.1 0.0
26/03:30am 16.4 17.9 14.6 89 1.0 CALM 0 0 0 0 1014.1 1014.1 0.0
26/03:00am 16.3 17.7 14.5 89 1.0 CALM 0 0 0 0 1014.1 1014.1 0.0
26/02:30am 16.5 17.9 14.5 88 1.1 CALM 0 0 0 0 1014.1 1014.1 0.0
26/02:00am 16.9 18.7 15.4 91 0.9 CALM 0 0 0 0 1014.2 1014.2 0.0
26/01:30am 17.1 18.8 15.1 88 1.2 CALM 0 0 0 0 1014.3 1014.3 0.0
26/01:00am 17.7 19.1 14.4 81 1.9 CALM 0 0 0 0 1014.5 1014.5 0.0
26/12:30am 18.2 19.9 15.3 83 1.7 CALM 0 0 0 0 1014.4 1014.4 0.0
26/12:00am 19.0 20.7 15.3 79 2.2 CALM 0 0 0 0 1014.4 1014.4 0.0
 
Date/Time
CST
Temp
°C
App
Temp
°C
Dew
Point
°C
Rel
Hum
%
Delta-T
°C
Wind Press
QNH
hPa
Press
MSL
hPa
Rain since
9am
mm
Dir  Spd
km/h
Gust
km/h
Spd
kts
Gust
kts
25/11:30pm 19.3 21.4 16.2 82 1.9 CALM 0 0 0 0 1014.5 1014.5 0.0
25/11:00pm 19.8 21.7 15.7 77 2.4 CALM 0 2 0 1 1014.6 1014.6 0.0
25/10:30pm 20.3 21.3 15.3 73 3.0 SSE 4 6 2 3 1014.5 1014.5 0.0
25/10:00pm 21.0 21.8 14.9 68 3.6 SE 4 6 2 3 1014.4 1014.4 0.0
25/09:30pm 21.7 22.4 14.4 63 4.3 ESE 4 4 2 2 1014.5 1014.5 0.0
25/09:00pm 22.6 23.3 14.4 60 4.8 ESE 4 4 2 2 1014.4 1014.4 0.0
25/08:30pm 23.8 24.5 14.5 56 5.5 E 4 4 2 2 1014.3 1014.3 0.0
25/08:00pm 24.8 25.0 14.6 53 6.1 E 7 13 4 7 1014.0 1014.0 0.0
25/07:30pm 25.3 25.2 13.8 49 6.8 NE 7 11 4 6 1013.8 1013.8 0.0
25/07:00pm 25.8 23.9 13.0 45 7.5 ENE 15 22 8 12 1013.5 1013.5 0.0
25/06:30pm 26.6 24.9 13.7 45 7.6 ENE 15 24 8 13 1013.2 1013.2 0.0
25/06:00pm 27.6 24.9 12.8 40 8.7 ENE 19 28 10 15 1012.9 1012.9 0.0
25/05:30pm 28.7 25.3 12.6 37 9.4 ENE 22 30 12 16 1012.7 1012.7 0.0
25/05:00pm 29.8 26.7 12.3 34 10.3 E 20 30 11 16 1012.6 1012.6 0.0
25/04:30pm 30.4 27.5 12.8 34 10.4 ESE 20 30 11 16 1012.4 1012.4 0.0
25/04:00pm 31.1 28.2 12.9 32 10.8 ESE 20 28 11 15 1012.4 1012.4 0.0
25/03:30pm 31.8 28.4 12.6 31 11.4 E 22 32 12 17 1012.2 1012.2 0.0
25/03:00pm 31.9 29.1 13.2 32 11.2 E 20 37 11 20 1012.4 1012.4 0.0
25/02:30pm 31.0 27.3 12.8 32 10.8 E 24 33 13 18 1012.7 1012.7 0.0
25/02:00pm 32.0 28.7 12.8 31 11.4 E 22 37 12 20 1013.0 1013.0 0.0
25/01:30pm 31.8 27.8 13.1 32 11.2 E 26 35 14 19 1013.4 1013.4 0.0
25/01:00pm 31.6 26.8 12.9 32 11.1 E 30 41 16 22 1013.8 1013.8 0.0
25/12:30pm 31.1 26.2 12.5 32 11.0 E 30 43 16 23 1014.3 1014.3 0.0
25/12:00pm 30.8 26.4 11.7 31 11.1 ESE 26 39 14 21 1014.8 1014.8 0.0
25/11:30am 30.7 27.4 13.9 36 10.1 E 24 33 13 18 1015.3 1015.3 0.0
25/11:00am 30.2 27.8 14.3 38 9.6 ESE 20 32 11 17 1015.6 1015.6 0.0
25/10:30am 29.2 26.4 14.2 40 9.0 ESE 22 39 12 21 1015.7 1015.7 0.0
25/10:00am 28.4 27.7 15.3 45 8.0 ESE 13 22 7 12 1015.5 1015.5 0.0
25/09:30am 27.0 26.4 15.7 50 6.9 SE 13 20 7 11 1015.7 1015.7 0.0
25/09:00am 24.3 25.7 17.3 65 4.3 ESE 6 9 3 5 1015.6 1015.6 0.0
25/08:30am 22.8 25.2 18.8 78 2.5 ESE 4 6 2 3 1015.4 1015.4 0.0

Other Formats:

Comma delimited format used in spreadsheet applications
http://www.bom.gov.au/fwo/IDD60801/IDD60801.94106.axf

JavaScript Object Notation format (JSON) in row-major order
http://www.bom.gov.au/fwo/IDD60801/IDD60801.94106.json